Terminal Aerodrome Forecast
Issued by NWS Goodland, KS

Home | Current Version | Previous Version | Text Only | Print | Product List | Glossary On
Versions: 1 2 3 4 5 6 7 8 9 10 11 12 13 14 15
000
FTUS43 KGLD 060525
TAFGLD
TAF
KGLD 060525Z 0606/0706 30009KT P6SM VCTS OVC090CB
     FM061100 35012KT P6SM VCTS BKN020CB
     FM061600 36019G29KT P6SM BKN040
     FM062300 02013G19KT P6SM BKN060
     FM070200 03006KT P6SM BKN110=

USA.gov is the U.S. government's official web portal to all federal, state and local government web resources and services.